Time;durP1;ratioP1;P1;durP2;ratioP2;P2;SDS_P1;SDS_P2;PMS_P1;PMS_P2;Temp;Humidity;BMP_temperature;BMP_pressure;BME280_temperature;BME280_humidity;BME280_pressure;Samples;Min_cycle;Max_cycle;Signal;HPM_P1;HPM_P2
2022/07/08 00:01:31;;;;;;;8.65;4.20;;;;;;;;;;7743527;23;20402;-62
2022/07/08 00:04:32;;;;;;;7.32;4.53;;;;;;;;;;7738219;23;20016;-61
2022/07/08 00:07:33;;;;;;;8.52;4.60;;;;;;;;;;7742376;23;20043;-61
2022/07/08 00:10:33;;;;;;;8.07;5.03;;;;;;;;;;7740986;23;20442;-61
2022/07/08 00:13:34;;;;;;;5.53;4.07;;;;;;;;;;7740198;23;20044;-61
2022/07/08 00:16:39;;;;;;;6.70;4.10;;;;;;;;;;7741187;23;20047;-62
2022/07/08 00:19:40;;;;;;;6.55;4.25;;;;;;;;;;7737932;23;20063;-61
2022/07/08 00:22:41;;;;;;;5.30;4.15;;;;;;;;;;7738674;23;20154;-62
2022/07/08 00:25:42;;;;;;;7.15;4.38;;;;;;;;;;7741923;23;20051;-61
2022/07/08 00:28:42;;;;;;;6.20;4.65;;;;;;;;;;7740257;23;20225;-61
2022/07/08 00:31:43;;;;;;;6.93;4.78;;;;;;;;;;7739232;23;20016;-59
2022/07/08 00:34:44;;;;;;;9.73;5.05;;;;;;;;;;7739512;23;20026;-61
2022/07/08 00:37:44;;;;;;;10.37;5.63;;;;;;;;;;7749453;23;20024;-61
2022/07/08 00:40:45;;;;;;;8.13;5.43;;;;;;;;;;7737507;23;20430;-61
2022/07/08 00:43:47;;;;;;;10.33;6.03;;;;;;;;;;7738152;23;20012;-59
2022/07/08 00:46:47;;;;;;;8.82;6.00;;;;;;;;;;7739916;23;20020;-60
2022/07/08 00:49:51;;;;;;;7.40;6.00;;;;;;;;;;7739398;23;20016;-60
2022/07/08 00:52:52;;;;;;;8.80;5.97;;;;;;;;;;7737799;23;20016;-61
2022/07/08 00:55:53;;;;;;;8.80;6.45;;;;;;;;;;7741031;23;20085;-62
2022/07/08 00:58:55;;;;;;;9.23;5.90;;;;;;;;;;7739178;23;20019;-61
2022/07/08 01:01:55;;;;;;;7.82;5.70;;;;;;;;;;7737894;23;20016;-60
2022/07/08 01:04:56;;;;;;;10.10;5.55;;;;;;;;;;7739884;23;20162;-62
2022/07/08 01:07:57;;;;;;;8.47;5.97;;;;;;;;;;7737066;23;20023;-61
2022/07/08 01:10:57;;;;;;;8.05;5.68;;;;;;;;;;7738436;23;20020;-63
2022/07/08 01:13:58;;;;;;;7.80;6.07;;;;;;;;;;7742098;23;20035;-61
2022/07/08 01:16:58;;;;;;;7.80;5.37;;;;;;;;;;7740181;23;20099;-61
2022/07/08 01:19:59;;;;;;;8.43;5.63;;;;;;;;;;7738610;23;20262;-61
2022/07/08 01:23:00;;;;;;;10.23;5.70;;;;;;;;;;7738233;23;20103;-61
2022/07/08 01:26:09;;;;;;;7.07;5.27;;;;;;;;;;7741486;23;20055;-62
2022/07/08 01:29:09;;;;;;;7.50;5.00;;;;;;;;;;7740337;23;20020;-61
2022/07/08 01:32:10;;;;;;;7.72;5.20;;;;;;;;;;7739460;23;20016;-63
2022/07/08 01:35:11;;;;;;;7.60;4.93;;;;;;;;;;7739315;23;20820;-62
2022/07/08 01:38:11;;;;;;;6.95;5.05;;;;;;;;;;7739779;23;20819;-59
2022/07/08 01:41:12;;;;;;;8.80;5.07;;;;;;;;;;7737712;23;20363;-63
2022/07/08 01:44:12;;;;;;;6.30;4.88;;;;;;;;;;7735806;23;20036;-60
2022/07/08 01:47:13;;;;;;;9.55;4.57;;;;;;;;;;7740288;23;20753;-60
2022/07/08 01:50:14;;;;;;;7.77;4.83;;;;;;;;;;7739636;23;20464;-61
2022/07/08 01:53:14;;;;;;;6.77;4.93;;;;;;;;;;7740128;23;20016;-61
2022/07/08 01:56:15;;;;;;;7.43;5.00;;;;;;;;;;7739143;23;20016;-61
2022/07/08 01:59:15;;;;;;;8.68;5.25;;;;;;;;;;7752980;23;20841;-60
2022/07/08 02:02:21;;;;;;;6.13;4.90;;;;;;;;;;7738141;23;20099;-60
2022/07/08 02:05:22;;;;;;;8.32;4.78;;;;;;;;;;7736269;23;20154;-60
2022/07/08 02:08:23;;;;;;;8.75;5.45;;;;;;;;;;7740638;23;20099;-61
2022/07/08 02:14:44;;;;;;;7.55;5.60;;;;;;;;;;7742888;23;20043;-62
2022/07/08 02:17:45;;;;;;;8.60;5.70;;;;;;;;;;7742667;23;20099;-62
2022/07/08 02:20:45;;;;;;;8.77;5.72;;;;;;;;;;7744141;23;20024;-60
2022/07/08 02:23:46;;;;;;;7.90;6.00;;;;;;;;;;7744874;23;20095;-62
2022/07/08 02:26:47;;;;;;;10.68;6.00;;;;;;;;;;7746650;23;20040;-63
2022/07/08 02:29:47;;;;;;;8.68;6.00;;;;;;;;;;7757210;23;20090;-62
2022/07/08 02:32:49;;;;;;;7.57;5.97;;;;;;;;;;7742369;23;20035;-60
2022/07/08 02:35:50;;;;;;;;;;;;;;;;;;7740340;23;20352;-63
2022/07/08 02:38:50;;;;;;;9.77;6.30;;;;;;;;;;7739820;23;19920;-63
2022/07/08 02:41:51;;;;;;;8.65;6.05;;;;;;;;;;7740815;23;20142;-63
2022/07/08 02:44:51;;;;;;;8.82;6.22;;;;;;;;;;7740221;23;20066;-63
2022/07/08 02:47:52;;;;;;;9.30;5.85;;;;;;;;;;7739393;23;20026;-62
2022/07/08 02:50:53;;;;;;;9.80;5.90;;;;;;;;;;7739673;23;20032;-63
2022/07/08 02:53:54;;;;;;;8.80;6.30;;;;;;;;;;7737883;23;20026;-61
2022/07/08 02:56:54;;;;;;;9.95;6.53;;;;;;;;;;7738241;23;20023;-63
2022/07/08 02:59:55;;;;;;;7.90;6.03;;;;;;;;;;7738511;23;20373;-62
2022/07/08 03:02:55;;;;;;;9.05;6.30;;;;;;;;;;7739861;23;20429;-62
2022/07/08 03:05:56;;;;;;;9.40;6.20;;;;;;;;;;7746920;23;20012;-61
2022/07/08 03:08:56;;;;;;;12.13;7.13;;;;;;;;;;7739758;23;20016;-62
2022/07/08 03:11:57;;;;;;;9.13;6.00;;;;;;;;;;7714271;23;20091;-62
2022/07/08 03:14:57;;;;;;;10.52;6.40;;;;;;;;;;7740060;23;20020;-61
2022/07/08 03:17:58;;;;;;;10.32;6.38;;;;;;;;;;7740140;23;20463;-60
2022/07/08 03:20:58;;;;;;;14.20;6.22;;;;;;;;;;7747232;23;20016;-61
2022/07/08 03:23:59;;;;;;;11.30;6.47;;;;;;;;;;7740383;23;20474;-61
2022/07/08 03:27:00;;;;;;;12.38;6.72;;;;;;;;;;7740853;23;20016;-62
2022/07/08 03:30:00;;;;;;;14.02;6.68;;;;;;;;;;7741017;23;20016;-62
2022/07/08 03:33:01;;;;;;;9.43;6.13;;;;;;;;;;7739621;23;20419;-63
2022/07/08 03:36:01;;;;;;;13.50;7.30;;;;;;;;;;7737692;23;20060;-62
2022/07/08 03:39:02;;;;;;;11.02;6.15;;;;;;;;;;7739412;23;20024;-62
2022/07/08 03:42:03;;;;;;;10.32;6.75;;;;;;;;;;7741998;23;20031;-62
2022/07/08 03:45:04;;;;;;;12.63;6.07;;;;;;;;;;7739735;23;20042;-62
2022/07/08 03:48:05;;;;;;;12.20;6.80;;;;;;;;;;7742297;23;20024;-62
2022/07/08 03:51:06;;;;;;;13.05;6.70;;;;;;;;;;7745686;23;20416;-62
2022/07/08 03:54:06;;;;;;;11.57;6.60;;;;;;;;;;7744327;23;20091;-62
2022/07/08 03:57:07;;;;;;;10.20;6.07;;;;;;;;;;7745713;23;20036;-61
2022/07/08 04:00:08;;;;;;;11.02;6.78;;;;;;;;;;7744836;23;20030;-63
2022/07/08 04:03:09;;;;;;;14.87;7.37;;;;;;;;;;7741955;23;20043;-62
2022/07/08 04:06:09;;;;;;;12.10;6.45;;;;;;;;;;7740170;23;20039;-62
2022/07/08 04:09:10;;;;;;;14.60;7.53;;;;;;;;;;7743754;23;20019;-61
2022/07/08 04:12:10;;;;;;;9.88;6.97;;;;;;;;;;7745117;23;20108;-63
2022/07/08 04:15:13;;;;;;;12.07;7.45;;;;;;;;;;7755822;23;20016;-61
2022/07/08 04:18:14;;;;;;;10.85;6.88;;;;;;;;;;7744920;23;20016;-61
2022/07/08 04:21:15;;;;;;;10.77;7.45;;;;;;;;;;7741710;23;20401;-63
2022/07/08 04:24:15;;;;;;;12.30;6.88;;;;;;;;;;7738882;23;20024;-63
2022/07/08 04:27:16;;;;;;;12.65;7.78;;;;;;;;;;7743888;23;20039;-63
2022/07/08 04:30:16;;;;;;;10.95;7.50;;;;;;;;;;7744243;23;20434;-63
2022/07/08 04:33:17;;;;;;;12.27;7.22;;;;;;;;;;7744357;23;20031;-64
2022/07/08 04:36:17;;;;;;;10.15;7.20;;;;;;;;;;7741853;23;20501;-62
2022/07/08 04:39:18;;;;;;;11.48;6.85;;;;;;;;;;7743465;23;20104;-61
2022/07/08 04:42:18;;;;;;;11.67;7.17;;;;;;;;;;7740549;23;20123;-63
2022/07/08 04:45:19;;;;;;;12.13;7.00;;;;;;;;;;7741720;23;20089;-63
2022/07/08 04:48:20;;;;;;;13.30;6.38;;;;;;;;;;7739350;23;20780;-63
2022/07/08 04:51:20;;;;;;;12.32;6.93;;;;;;;;;;7741459;23;20023;-62
2022/07/08 04:54:21;;;;;;;13.57;6.68;;;;;;;;;;7740277;23;20042;-61
2022/07/08 04:57:23;;;;;;;12.98;6.63;;;;;;;;;;7739317;23;20026;-67
2022/07/08 05:00:24;;;;;;;10.45;6.57;;;;;;;;;;7737373;23;20321;-62
2022/07/08 05:03:24;;;;;;;14.32;6.85;;;;;;;;;;7741023;23;20104;-60
2022/07/08 05:06:25;;;;;;;9.88;6.80;;;;;;;;;;7743014;23;20778;-63
2022/07/08 05:09:26;;;;;;;13.77;7.43;;;;;;;;;;7742616;23;20020;-61
2022/07/08 05:12:26;;;;;;;15.57;7.60;;;;;;;;;;7742319;23;20020;-62
2022/07/08 05:15:27;;;;;;;11.13;7.20;;;;;;;;;;7741741;23;20024;-62
2022/07/08 05:18:28;;;;;;;15.67;7.40;;;;;;;;;;7742261;23;20395;-63
2022/07/08 05:21:28;;;;;;;12.23;7.33;;;;;;;;;;7741457;23;20443;-62
2022/07/08 05:24:29;;;;;;;18.80;8.18;;;;;;;;;;7741626;23;20551;-62
2022/07/08 05:27:29;;;;;;;16.13;7.60;;;;;;;;;;7744115;23;20020;-62
2022/07/08 05:30:30;;;;;;;22.00;8.73;;;;;;;;;;7744337;23;20388;-61
2022/07/08 05:33:31;;;;;;;16.97;8.67;;;;;;;;;;7745952;23;20020;-62
2022/07/08 05:36:31;;;;;;;15.23;7.68;;;;;;;;;;7745295;23;20366;-62
2022/07/08 05:39:32;;;;;;;12.73;7.65;;;;;;;;;;7744686;23;20016;-63
2022/07/08 05:42:32;;;;;;;14.68;7.80;;;;;;;;;;7745210;23;20107;-62
2022/07/08 05:45:33;;;;;;;12.05;7.40;;;;;;;;;;7745868;23;20028;-63
2022/07/08 05:48:33;;;;;;;12.98;8.50;;;;;;;;;;7750020;23;20044;-62
2022/07/08 05:51:34;;;;;;;12.20;7.72;;;;;;;;;;7746232;23;20095;-62
2022/07/08 05:54:34;;;;;;;11.48;7.90;;;;;;;;;;7745180;23;20043;-62
2022/07/08 05:57:35;;;;;;;12.30;7.47;;;;;;;;;;7746650;23;20024;-62
2022/07/08 06:00:36;;;;;;;12.88;7.93;;;;;;;;;;7745906;23;20096;-62
2022/07/08 06:03:36;;;;;;;11.88;8.20;;;;;;;;;;7745636;23;20438;-63
2022/07/08 06:06:37;;;;;;;13.32;7.70;;;;;;;;;;7745258;23;20478;-61
2022/07/08 06:09:37;;;;;;;11.37;7.90;;;;;;;;;;7741051;23;20018;-61
2022/07/08 06:12:38;;;;;;;13.37;8.20;;;;;;;;;;7741274;23;20095;-63
2022/07/08 06:15:39;;;;;;;13.23;7.50;;;;;;;;;;7740506;23;20469;-62
2022/07/08 06:18:39;;;;;;;15.48;8.45;;;;;;;;;;7739837;23;20862;-62
2022/07/08 06:21:40;;;;;;;12.47;7.97;;;;;;;;;;7715730;23;20442;-62
2022/07/08 06:24:40;;;;;;;13.90;8.30;;;;;;;;;;7741748;23;20016;-62
2022/07/08 06:27:41;;;;;;;15.32;8.65;;;;;;;;;;7745381;23;20024;-63
2022/07/08 06:30:42;;;;;;;13.40;8.63;;;;;;;;;;7745100;23;20016;-62
2022/07/08 06:33:43;;;;;;;14.73;7.87;;;;;;;;;;7745206;23;20036;-63
2022/07/08 06:36:43;;;;;;;10.35;7.88;;;;;;;;;;7741247;23;20324;-62
2022/07/08 06:39:44;;;;;;;14.05;8.25;;;;;;;;;;7741809;23;20340;-62
2022/07/08 06:42:44;;;;;;;10.57;7.07;;;;;;;;;;7742829;23;20111;-63
2022/07/08 06:45:46;;;;;;;9.90;7.18;;;;;;;;;;7742060;23;20016;-63
2022/07/08 06:48:46;;;;;;;11.27;7.97;;;;;;;;;;7740844;23;20099;-63
2022/07/08 06:51:47;;;;;;;10.70;7.28;;;;;;;;;;7742416;23;20091;-63
2022/07/08 06:54:48;;;;;;;10.77;7.77;;;;;;;;;;7740793;23;20103;-63
2022/07/08 06:57:48;;;;;;;10.80;8.10;;;;;;;;;;7754047;23;20020;-63
2022/07/08 07:00:49;;;;;;;9.83;8.27;;;;;;;;;;7741205;23;20050;-62
2022/07/08 07:03:49;;;;;;;10.30;7.65;;;;;;;;;;7739277;23;20535;-63
2022/07/08 07:06:50;;;;;;;10.87;8.17;;;;;;;;;;7741107;23;20024;-63
2022/07/08 07:09:51;;;;;;;11.37;8.00;;;;;;;;;;7738477;23;20095;-63
2022/07/08 07:12:51;;;;;;;11.53;9.00;;;;;;;;;;7744802;23;20013;-63
2022/07/08 07:15:52;;;;;;;12.97;9.13;;;;;;;;;;7745359;23;20095;-63
2022/07/08 07:18:53;;;;;;;13.23;9.33;;;;;;;;;;7744564;23;20147;-63
2022/07/08 07:21:54;;;;;;;11.90;8.47;;;;;;;;;;7744053;23;20021;-63
2022/07/08 07:24:55;;;;;;;12.13;8.13;;;;;;;;;;7744534;23;20313;-63
2022/07/08 07:27:55;;;;;;;11.47;7.70;;;;;;;;;;7741526;23;20020;-63
2022/07/08 07:30:56;;;;;;;9.00;6.80;;;;;;;;;;7742161;23;20012;-64
2022/07/08 07:33:56;;;;;;;9.50;7.47;;;;;;;;;;7742653;23;20038;-64
2022/07/08 07:36:57;;;;;;;13.03;7.80;;;;;;;;;;7744173;23;20044;-64
2022/07/08 07:39:57;;;;;;;10.60;8.20;;;;;;;;;;7743887;23;20161;-63
2022/07/08 07:42:58;;;;;;;10.47;7.87;;;;;;;;;;7745342;23;20087;-62
2022/07/08 07:45:58;;;;;;;9.57;7.00;;;;;;;;;;7746610;23;20020;-62
2022/07/08 07:48:59;;;;;;;11.50;7.93;;;;;;;;;;7747608;23;20413;-63
2022/07/08 07:52:00;;;;;;;12.40;7.97;;;;;;;;;;7746848;23;20016;-63
2022/07/08 07:55:00;;;;;;;9.77;7.93;;;;;;;;;;7747089;23;20103;-63
2022/07/08 07:58:02;;;;;;;9.97;7.20;;;;;;;;;;7747311;23;20020;-63
2022/07/08 08:01:02;;;;;;;9.90;6.80;;;;;;;;;;7745814;23;20082;-62
2022/07/08 08:04:03;;;;;;;13.50;6.70;;;;;;;;;;7747344;23;20016;-62
2022/07/08 08:07:04;;;;;;;8.33;6.30;;;;;;;;;;7746951;23;20020;-62
2022/07/08 08:10:05;;;;;;;13.97;8.13;;;;;;;;;;7746515;23;20463;-63
2022/07/08 08:13:05;;;;;;;11.73;8.50;;;;;;;;;;7747065;23;20016;-62
2022/07/08 08:16:06;;;;;;;11.93;7.30;;;;;;;;;;7746456;23;20275;-63
2022/07/08 08:19:06;;;;;;;11.20;7.40;;;;;;;;;;7746919;23;20345;-63
2022/07/08 08:22:07;;;;;;;12.47;7.80;;;;;;;;;;7746739;23;20024;-61
2022/07/08 08:25:08;;;;;;;10.10;6.73;;;;;;;;;;7747225;23;20329;-62
2022/07/08 08:28:09;;;;;;;7.90;5.00;;;;;;;;;;7747564;23;20103;-63
2022/07/08 08:31:09;;;;;;;7.30;4.50;;;;;;;;;;7751144;23;20024;-63
2022/07/08 08:34:10;;;;;;;6.27;4.00;;;;;;;;;;7746732;23;20031;-62
2022/07/08 08:37:10;;;;;;;5.00;3.77;;;;;;;;;;7746573;23;20019;-63
2022/07/08 08:40:12;;;;;;;6.07;4.17;;;;;;;;;;7746691;23;20107;-62
2022/07/08 08:43:13;;;;;;;6.63;4.60;;;;;;;;;;7746603;23;20964;-63
2022/07/08 08:46:17;;;;;;;6.20;4.55;;;;;;;;;;7745674;23;20047;-62
2022/07/08 08:49:19;;;;;;;9.48;4.63;;;;;;;;;;7745869;23;20024;-62
2022/07/08 08:52:22;;;;;;;6.45;4.03;;;;;;;;;;7744969;23;20105;-63
2022/07/08 08:55:27;;;;;;;5.93;4.40;;;;;;;;;;7745945;23;20096;-62
2022/07/08 08:58:28;;;;;;;6.78;4.40;;;;;;;;;;7746555;23;20113;-61
2022/07/08 09:01:30;;;;;;;6.70;5.32;;;;;;;;;;7745271;23;20020;-62
2022/07/08 09:04:31;;;;;;;7.53;4.93;;;;;;;;;;7745623;23;20020;-62
2022/07/08 09:07:31;;;;;;;6.67;4.70;;;;;;;;;;7746111;23;20059;-63
2022/07/08 09:10:34;;;;;;;6.70;5.00;;;;;;;;;;7743515;23;20070;-63
2022/07/08 09:13:34;;;;;;;8.55;5.40;;;;;;;;;;7741836;23;20843;-63
2022/07/08 09:16:35;;;;;;;6.03;4.57;;;;;;;;;;7732159;23;20023;-60
2022/07/08 09:19:41;;;;;;;6.20;4.90;;;;;;;;;;7730114;23;20030;-60
2022/07/08 09:22:41;;;;;;;7.15;5.65;;;;;;;;;;7740799;23;20111;-63
2022/07/08 09:25:42;;;;;;;6.90;5.60;;;;;;;;;;7731479;23;20062;-60
2022/07/08 09:28:44;;;;;;;8.37;6.03;;;;;;;;;;7727910;23;20043;-61
2022/07/08 09:31:45;;;;;;;;;;;;;;;;;;7698968;23;20087;-61
2022/07/08 09:34:46;;;;;;;7.45;6.03;;;;;;;;;;7728541;23;20449;-63
2022/07/08 09:37:50;;;;;;;10.20;6.80;;;;;;;;;;7724811;23;20020;-62
2022/07/08 09:40:59;;;;;;;7.45;6.32;;;;;;;;;;7733215;23;20108;-62
2022/07/08 09:44:00;;;;;;;8.52;6.40;;;;;;;;;;7727548;23;20432;-62
2022/07/08 09:47:07;;;;;;;9.60;6.43;;;;;;;;;;7725692;23;20106;-61
2022/07/08 09:50:08;;;;;;;10.38;6.47;;;;;;;;;;7727101;23;20596;-62
2022/07/08 09:53:22;;;;;;;8.75;6.50;;;;;;;;;;7725756;23;20871;-62
2022/07/08 09:56:26;;;;;;;8.25;6.20;;;;;;;;;;7726301;23;20024;-60
2022/07/08 09:59:28;;;;;;;8.23;6.15;;;;;;;;;;7729883;23;20114;-61
2022/07/08 10:02:30;;;;;;;;;;;;;;;;;;7729300;23;20030;-62
2022/07/08 10:05:31;;;;;;;7.72;5.80;;;;;;;;;;7727749;23;19916;-62
2022/07/08 10:08:35;;;;;;;9.17;6.90;;;;;;;;;;7724361;23;20031;-62
2022/07/08 10:11:37;;;;;;;8.52;7.15;;;;;;;;;;7727585;23;20027;-60
2022/07/08 10:14:38;;;;;;;9.23;6.78;;;;;;;;;;7728313;23;20078;-59
2022/07/08 10:17:43;;;;;;;10.77;7.37;;;;;;;;;;7734825;23;20103;-59
2022/07/08 10:20:50;;;;;;;10.98;6.95;;;;;;;;;;7741036;23;20554;-59
2022/07/08 10:23:52;;;;;;;9.70;7.35;;;;;;;;;;7734671;23;20396;-61
2022/07/08 10:26:58;;;;;;;10.48;7.90;;;;;;;;;;7734371;23;20020;-60
2022/07/08 10:30:13;;;;;;;10.57;7.53;;;;;;;;;;7732512;23;20095;-61
2022/07/08 10:33:19;;;;;;;9.00;6.82;;;;;;;;;;7727395;23;20020;-60
2022/07/08 10:36:21;;;;;;;12.93;7.20;;;;;;;;;;7730695;23;20340;-63
2022/07/08 10:39:31;;;;;;;10.60;7.10;;;;;;;;;;7729569;23;20611;-62
2022/07/08 10:42:31;;;;;;;10.45;8.00;;;;;;;;;;7725684;23;20408;-60
2022/07/08 10:45:59;;;;;;;9.30;7.37;;;;;;;;;;7727585;23;20104;-60
2022/07/08 10:49:01;;;;;;;10.98;7.10;;;;;;;;;;7725381;23;20131;-61
2022/07/08 10:52:01;;;;;;;;;;;;;;;;;;7724236;23;20102;-61
2022/07/08 10:55:11;;;;;;;11.68;7.28;;;;;;;;;;7735797;23;19919;-62
2022/07/08 10:58:12;;;;;;;12.23;8.57;;;;;;;;;;7733359;23;20352;-61
2022/07/08 11:01:25;;;;;;;14.93;9.73;;;;;;;;;;7734153;23;20024;-62
2022/07/08 11:04:29;;;;;;;12.48;8.27;;;;;;;;;;7736086;23;20041;-62
2022/07/08 11:07:30;;;;;;;11.45;7.38;;;;;;;;;;7733208;23;20151;-62
2022/07/08 11:10:31;;;;;;;7.72;5.72;;;;;;;;;;7734784;23;20469;-61
2022/07/08 11:13:33;;;;;;;8.37;5.93;;;;;;;;;;7735561;23;20459;-62
2022/07/08 11:16:34;;;;;;;9.68;6.72;;;;;;;;;;7734063;23;20024;-62
2022/07/08 11:19:34;;;;;;;12.17;7.33;;;;;;;;;;7737461;23;20023;-62
2022/07/08 11:22:40;;;;;;;11.60;7.50;;;;;;;;;;7736842;23;20024;-61
2022/07/08 11:25:40;;;;;;;10.70;7.00;;;;;;;;;;7737200;23;20973;-62
2022/07/08 11:28:41;;;;;;;9.50;6.63;;;;;;;;;;7728041;23;20020;-62
2022/07/08 11:31:42;;;;;;;7.93;5.67;;;;;;;;;;7732048;23;20024;-62
2022/07/08 11:34:43;;;;;;;8.63;6.07;;;;;;;;;;7728190;23;20028;-62
2022/07/08 11:37:45;;;;;;;9.93;6.88;;;;;;;;;;7727539;23;20078;-61
2022/07/08 11:40:47;;;;;;;7.60;6.17;;;;;;;;;;7729553;23;20688;-61
2022/07/08 11:43:49;;;;;;;9.52;5.75;;;;;;;;;;7731930;23;20020;-61
2022/07/08 11:46:51;;;;;;;;;;;;;;;;;;7729171;23;20024;-62
2022/07/08 11:49:52;;;;;;;10.23;7.82;;;;;;;;;;7727850;23;19931;-60
2022/07/08 11:52:52;;;;;;;8.73;7.00;;;;;;;;;;7727672;23;20454;-62
2022/07/08 11:55:53;;;;;;;13.83;7.77;;;;;;;;;;7727281;23;20663;-62
2022/07/08 11:58:54;;;;;;;11.07;7.20;;;;;;;;;;7727887;23;20030;-62
2022/07/08 12:01:56;;;;;;;10.87;7.23;;;;;;;;;;7726678;23;20077;-62
2022/07/08 12:04:57;;;;;;;10.73;7.20;;;;;;;;;;7727451;23;20051;-60
2022/07/08 12:07:58;;;;;;;12.43;7.30;;;;;;;;;;7732491;23;20098;-62
2022/07/08 12:11:16;;;;;;;8.70;6.27;;;;;;;;;;7738122;23;20093;-62
2022/07/08 12:14:18;;;;;;;7.60;5.65;;;;;;;;;;7737381;23;20077;-62
2022/07/08 12:17:27;;;;;;;11.93;6.80;;;;;;;;;;7736556;23;20521;-62
2022/07/08 12:20:35;;;;;;;10.27;6.70;;;;;;;;;;7734153;23;20098;-62
2022/07/08 12:23:55;;;;;;;10.00;6.50;;;;;;;;;;7736991;23;20050;-62
2022/07/08 12:26:58;;;;;;;10.45;7.38;;;;;;;;;;7730151;23;20135;-62
2022/07/08 12:30:04;;;;;;;10.77;7.60;;;;;;;;;;7727324;23;20051;-62
2022/07/08 12:33:05;;;;;;;9.27;6.40;;;;;;;;;;7728506;23;20816;-61
2022/07/08 12:36:24;;;;;;;10.27;6.40;;;;;;;;;;7735098;23;20028;-61
2022/07/08 12:39:28;;;;;;;10.75;6.10;;;;;;;;;;7741792;23;20072;-62
2022/07/08 12:42:28;;;;;;;9.88;5.80;;;;;;;;;;7728440;23;20057;-62
2022/07/08 12:45:30;;;;;;;9.03;5.23;;;;;;;;;;7732052;23;20077;-63
2022/07/08 12:48:30;;;;;;;7.37;5.07;;;;;;;;;;7730978;23;20030;-63
2022/07/08 12:51:31;;;;;;;7.20;4.23;;;;;;;;;;7728412;23;20058;-62
2022/07/08 12:54:32;;;;;;;6.50;4.43;;;;;;;;;;7728077;23;20024;-63
2022/07/08 12:57:33;;;;;;;7.38;4.22;;;;;;;;;;7728682;23;20411;-62
2022/07/08 13:00:33;;;;;;;8.40;3.77;;;;;;;;;;7727270;23;20016;-62
2022/07/08 13:03:34;;;;;;;7.10;3.87;;;;;;;;;;7727914;23;20024;-61
2022/07/08 13:06:34;;;;;;;6.37;3.60;;;;;;;;;;7730618;23;20016;-62
2022/07/08 13:09:35;;;;;;;8.10;3.83;;;;;;;;;;7728491;23;20446;-62
2022/07/08 13:12:36;;;;;;;7.90;3.70;;;;;;;;;;7727969;23;20027;-62
2022/07/08 13:15:36;;;;;;;8.38;3.70;;;;;;;;;;7732041;23;20024;-63
2022/07/08 13:18:37;;;;;;;7.07;4.07;;;;;;;;;;7730308;23;20435;-61
2022/07/08 13:21:38;;;;;;;8.53;4.30;;;;;;;;;;7726598;23;20381;-62
2022/07/08 13:24:38;;;;;;;7.37;5.07;;;;;;;;;;7732809;23;20035;-63
2022/07/08 13:27:41;;;;;;;8.27;5.37;;;;;;;;;;7734163;23;20470;-61
2022/07/08 13:30:41;;;;;;;10.07;6.07;;;;;;;;;;7734950;23;20024;-62
2022/07/08 13:33:42;;;;;;;12.47;6.60;;;;;;;;;;7735298;23;20146;-61
2022/07/08 13:36:43;;;;;;;10.67;6.90;;;;;;;;;;7735330;23;20451;-63
2022/07/08 13:39:43;;;;;;;10.17;6.93;;;;;;;;;;7735944;23;20024;-62
2022/07/08 13:42:44;;;;;;;11.63;7.33;;;;;;;;;;7735385;23;20018;-62
2022/07/08 13:45:45;;;;;;;12.27;7.23;;;;;;;;;;7736806;23;20023;-62
2022/07/08 13:48:45;;;;;;;15.53;7.30;;;;;;;;;;7733861;23;20721;-63
2022/07/08 13:51:46;;;;;;;12.87;7.30;;;;;;;;;;7736460;23;20043;-64
2022/07/08 13:54:48;;;;;;;9.60;7.07;;;;;;;;;;7736326;23;20436;-63
2022/07/08 13:57:50;;;;;;;16.02;7.78;;;;;;;;;;7733196;23;20024;-62
2022/07/08 14:00:51;;;;;;;12.57;7.10;;;;;;;;;;7735547;23;20134;-63
2022/07/08 14:03:51;;;;;;;10.37;7.13;;;;;;;;;;7727137;23;20444;-64
2022/07/08 14:06:51;;;;;;;10.53;6.97;;;;;;;;;;7724734;23;20022;-64
2022/07/08 14:09:52;;;;;;;10.97;5.67;;;;;;;;;;7726934;23;20446;-63
2022/07/08 14:12:53;;;;;;;9.87;5.43;;;;;;;;;;7742950;23;20030;-64
2022/07/08 14:15:53;;;;;;;8.70;4.60;;;;;;;;;;7729879;23;20032;-64
2022/07/08 14:18:54;;;;;;;8.93;4.47;;;;;;;;;;7725932;23;20016;-63
2022/07/08 14:21:55;;;;;;;8.13;4.87;;;;;;;;;;7730014;23;20095;-63
2022/07/08 14:24:56;;;;;;;11.27;4.63;;;;;;;;;;7723756;23;20016;-63
2022/07/08 14:27:56;;;;;;;8.23;4.33;;;;;;;;;;7725296;23;20043;-64
2022/07/08 14:30:57;;;;;;;6.67;4.10;;;;;;;;;;7727404;23;20020;-64
2022/07/08 14:33:57;;;;;;;6.20;3.67;;;;;;;;;;7726689;23;20051;-63
2022/07/08 14:36:58;;;;;;;9.17;3.70;;;;;;;;;;7724627;23;20444;-63
2022/07/08 14:39:59;;;;;;;7.87;3.60;;;;;;;;;;7727895;23;20633;-60
2022/07/08 14:42:59;;;;;;;7.17;3.60;;;;;;;;;;7738841;23;20054;-62
2022/07/08 14:46:02;;;;;;;8.00;3.53;;;;;;;;;;7726219;23;20468;-62
2022/07/08 14:49:02;;;;;;;7.03;3.60;;;;;;;;;;7732606;23;20082;-62
2022/07/08 14:52:06;;;;;;;8.60;3.67;;;;;;;;;;7733128;23;20020;-64
2022/07/08 14:55:07;;;;;;;9.43;4.05;;;;;;;;;;7735826;23;20515;-61
2022/07/08 14:58:07;;;;;;;6.70;4.07;;;;;;;;;;7733790;23;20020;-62
2022/07/08 15:01:08;;;;;;;9.73;4.17;;;;;;;;;;7735218;23;20062;-61
2022/07/08 15:04:08;;;;;;;6.60;4.43;;;;;;;;;;7733995;23;20020;-61
2022/07/08 15:07:09;;;;;;;7.67;3.87;;;;;;;;;;7733534;23;20027;-61
2022/07/08 15:10:09;;;;;;;7.53;3.67;;;;;;;;;;7745384;23;20024;-61
2022/07/08 15:13:10;;;;;;;5.90;3.70;;;;;;;;;;7733073;23;20505;-61
2022/07/08 15:16:11;;;;;;;6.80;3.47;;;;;;;;;;7733843;23;20031;-61
2022/07/08 15:19:13;;;;;;;5.22;3.00;;;;;;;;;;7735312;23;20546;-59
2022/07/08 15:22:13;;;;;;;5.43;3.20;;;;;;;;;;7734185;23;20035;-60
2022/07/08 15:25:14;;;;;;;9.43;2.80;;;;;;;;;;7735726;23;20359;-60
2022/07/08 15:28:15;;;;;;;3.80;2.50;;;;;;;;;;7733486;23;20040;-60
2022/07/08 15:31:16;;;;;;;8.13;2.83;;;;;;;;;;7735124;23;20494;-61
2022/07/08 15:34:16;;;;;;;5.80;2.90;;;;;;;;;;7736297;23;20066;-61
2022/07/08 15:37:18;;;;;;;7.47;3.13;;;;;;;;;;7734299;23;20020;-61
2022/07/08 15:40:18;;;;;;;7.47;3.03;;;;;;;;;;7735627;23;20365;-61
2022/07/08 15:43:19;;;;;;;7.73;3.67;;;;;;;;;;7735549;23;20019;-61
2022/07/08 15:46:19;;;;;;;8.03;3.53;;;;;;;;;;7734021;23;20099;-61
2022/07/08 15:49:20;;;;;;;6.10;2.90;;;;;;;;;;7735390;23;20028;-61
2022/07/08 15:52:21;;;;;;;6.90;2.93;;;;;;;;;;7733612;23;20091;-61
2022/07/08 15:55:21;;;;;;;7.13;3.17;;;;;;;;;;7735304;23;20020;-61
2022/07/08 15:58:22;;;;;;;7.00;3.27;;;;;;;;;;7734107;23;20020;-62
2022/07/08 16:01:22;;;;;;;5.53;2.93;;;;;;;;;;7735200;23;20352;-63
2022/07/08 16:04:23;;;;;;;5.43;3.10;;;;;;;;;;7709418;23;20452;-61
2022/07/08 16:07:24;;;;;;;6.47;2.93;;;;;;;;;;7736103;23;20026;-61
2022/07/08 16:10:24;;;;;;;5.65;3.17;;;;;;;;;;7738359;23;20349;-62
2022/07/08 16:13:25;;;;;;;5.90;2.80;;;;;;;;;;7737973;23;20020;-63
2022/07/08 16:16:26;;;;;;;5.80;3.00;;;;;;;;;;7735095;23;20024;-61
2022/07/08 16:19:27;;;;;;;7.50;3.20;;;;;;;;;;7738540;23;20069;-60
2022/07/08 16:22:28;;;;;;;7.97;3.67;;;;;;;;;;7736223;23;20046;-63
2022/07/08 16:25:30;;;;;;;5.47;3.17;;;;;;;;;;7737067;23;20499;-62
2022/07/08 16:28:30;;;;;;;6.82;3.25;;;;;;;;;;7735586;23;20024;-62
2022/07/08 16:31:31;;;;;;;5.10;2.73;;;;;;;;;;7736313;23;20022;-62
2022/07/08 16:34:32;;;;;;;5.83;2.90;;;;;;;;;;7737530;23;20402;-62
2022/07/08 16:37:32;;;;;;;4.93;3.00;;;;;;;;;;7736975;23;20372;-62
2022/07/08 16:40:33;;;;;;;5.53;2.90;;;;;;;;;;7736780;23;20347;-62
2022/07/08 16:43:34;;;;;;;5.47;2.80;;;;;;;;;;7736945;23;20100;-62
2022/07/08 16:46:34;;;;;;;5.37;2.93;;;;;;;;;;7734887;23;20027;-62
2022/07/08 16:49:35;;;;;;;4.87;2.90;;;;;;;;;;7737266;23;20024;-62
2022/07/08 16:52:36;;;;;;;7.40;2.97;;;;;;;;;;7736941;23;20020;-62
2022/07/08 16:55:37;;;;;;;5.40;2.80;;;;;;;;;;7736998;23;20042;-61
2022/07/08 16:58:37;;;;;;;5.43;2.80;;;;;;;;;;7735431;23;20023;-61
2022/07/08 17:01:38;;;;;;;5.87;2.90;;;;;;;;;;7735774;23;20975;-62
2022/07/08 17:04:39;;;;;;;5.00;2.87;;;;;;;;;;7737808;23;21105;-62
2022/07/08 17:07:40;;;;;;;7.17;2.63;;;;;;;;;;7735572;23;20016;-62
2022/07/08 17:10:41;;;;;;;7.82;3.05;;;;;;;;;;7737189;23;20039;-63
2022/07/08 17:13:42;;;;;;;5.70;3.00;;;;;;;;;;7737011;23;20403;-62
2022/07/08 17:16:45;;;;;;;7.93;4.20;;;;;;;;;;7734082;23;20020;-61
2022/07/08 17:19:45;;;;;;;7.90;3.50;;;;;;;;;;7737157;23;20990;-61
2022/07/08 17:22:46;;;;;;;4.73;2.60;;;;;;;;;;7735701;23;20020;-63
2022/07/08 17:25:47;;;;;;;5.43;2.43;;;;;;;;;;7736548;23;20502;-62
2022/07/08 17:28:47;;;;;;;4.37;2.23;;;;;;;;;;7735714;23;20024;-63
2022/07/08 17:31:48;;;;;;;5.70;1.90;;;;;;;;;;7736252;23;20083;-62
2022/07/08 17:34:51;;;;;;;4.37;1.80;;;;;;;;;;7738052;23;20020;-62
2022/07/08 17:37:52;;;;;;;5.10;1.92;;;;;;;;;;7735330;23;20078;-62
2022/07/08 17:40:53;;;;;;;3.10;1.90;;;;;;;;;;7737064;23;20016;-62
2022/07/08 17:43:55;;;;;;;4.23;1.77;;;;;;;;;;7737322;23;20038;-61
2022/07/08 17:46:56;;;;;;;4.68;2.03;;;;;;;;;;7734399;23;20094;-61
2022/07/08 17:49:57;;;;;;;6.97;2.00;;;;;;;;;;7747589;23;20077;-62
2022/07/08 17:53:00;;;;;;;7.33;2.60;;;;;;;;;;7736059;23;20028;-62
2022/07/08 17:56:00;;;;;;;4.15;2.20;;;;;;;;;;7734729;23;20030;-61
2022/07/08 17:59:01;;;;;;;4.73;1.90;;;;;;;;;;7736775;23;20784;-61
2022/07/08 18:02:02;;;;;;;5.13;2.37;;;;;;;;;;7734178;23;20450;-60
2022/07/08 18:05:03;;;;;;;7.17;2.23;;;;;;;;;;7736522;23;20087;-61